sensor_id;sensor_type;location;lat;lon;timestamp;P1;durP1;ratioP1;P2;durP2;ratioP2
59880;SDS011;45751;51.380;10.326;2023-04-24T00:01:37;5.00;;;1.52;;
59880;SDS011;45751;51.380;10.326;2023-04-24T00:04:06;5.90;;;1.52;;
59880;SDS011;45751;51.380;10.326;2023-04-24T00:06:33;6.93;;;1.77;;
59880;SDS011;45751;51.380;10.326;2023-04-24T00:09:00;6.95;;;1.92;;
59880;SDS011;45751;51.380;10.326;2023-04-24T00:11:27;5.80;;;1.80;;
59880;SDS011;45751;51.380;10.326;2023-04-24T00:13:54;5.13;;;1.50;;
59880;SDS011;45751;51.380;10.326;2023-04-24T00:16:22;5.20;;;1.80;;
59880;SDS011;45751;51.380;10.326;2023-04-24T00:18:49;6.32;;;1.50;;
59880;SDS011;45751;51.380;10.326;2023-04-24T00:21:18;6.35;;;1.88;;
59880;SDS011;45751;51.380;10.326;2023-04-24T00:23:45;7.03;;;2.10;;
59880;SDS011;45751;51.380;10.326;2023-04-24T00:26:13;6.90;;;1.70;;
59880;SDS011;45751;51.380;10.326;2023-04-24T00:28:40;10.43;;;1.63;;
59880;SDS011;45751;51.380;10.326;2023-04-24T00:31:06;5.55;;;1.60;;
59880;SDS011;45751;51.380;10.326;2023-04-24T00:33:34;10.73;;;2.40;;
59880;SDS011;45751;51.380;10.326;2023-04-24T00:36:01;6.00;;;1.60;;
59880;SDS011;45751;51.380;10.326;2023-04-24T00:38:28;10.80;;;2.88;;
59880;SDS011;45751;51.380;10.326;2023-04-24T00:40:55;6.05;;;1.90;;
59880;SDS011;45751;51.380;10.326;2023-04-24T00:43:22;5.30;;;1.50;;
59880;SDS011;45751;51.380;10.326;2023-04-24T00:45:49;5.95;;;1.50;;
59880;SDS011;45751;51.380;10.326;2023-04-24T00:48:16;5.70;;;1.38;;
59880;SDS011;45751;51.380;10.326;2023-04-24T00:50:49;4.85;;;1.45;;
59880;SDS011;45751;51.380;10.326;2023-04-24T00:53:16;7.75;;;1.92;;
59880;SDS011;45751;51.380;10.326;2023-04-24T00:55:43;6.43;;;1.70;;
59880;SDS011;45751;51.380;10.326;2023-04-24T00:58:12;5.93;;;1.45;;
59880;SDS011;45751;51.380;10.326;2023-04-24T01:00:39;5.55;;;1.65;;
59880;SDS011;45751;51.380;10.326;2023-04-24T01:03:07;6.20;;;1.70;;
59880;SDS011;45751;51.380;10.326;2023-04-24T01:05:34;6.22;;;1.98;;
59880;SDS011;45751;51.380;10.326;2023-04-24T01:08:01;6.65;;;2.00;;
59880;SDS011;45751;51.380;10.326;2023-04-24T01:10:29;5.30;;;1.70;;
59880;SDS011;45751;51.380;10.326;2023-04-24T01:12:59;6.22;;;1.63;;
59880;SDS011;45751;51.380;10.326;2023-04-24T01:15:26;5.72;;;1.90;;
59880;SDS011;45751;51.380;10.326;2023-04-24T01:17:53;7.30;;;2.15;;
59880;SDS011;45751;51.380;10.326;2023-04-24T01:20:20;6.43;;;1.50;;
59880;SDS011;45751;51.380;10.326;2023-04-24T01:25:53;6.28;;;1.55;;
59880;SDS011;45751;51.380;10.326;2023-04-24T01:28:20;6.65;;;1.80;;
59880;SDS011;45751;51.380;10.326;2023-04-24T01:30:47;5.28;;;1.48;;
59880;SDS011;45751;51.380;10.326;2023-04-24T01:33:15;5.40;;;1.40;;
59880;SDS011;45751;51.380;10.326;2023-04-24T01:35:42;5.97;;;1.80;;
59880;SDS011;45751;51.380;10.326;2023-04-24T01:38:09;6.97;;;1.80;;
59880;SDS011;45751;51.380;10.326;2023-04-24T01:40:36;6.35;;;2.25;;
59880;SDS011;45751;51.380;10.326;2023-04-24T01:43:04;6.75;;;1.70;;
59880;SDS011;45751;51.380;10.326;2023-04-24T01:45:31;5.65;;;1.50;;
59880;SDS011;45751;51.380;10.326;2023-04-24T01:47:58;5.90;;;1.77;;
59880;SDS011;45751;51.380;10.326;2023-04-24T01:50:27;6.57;;;1.70;;
59880;SDS011;45751;51.380;10.326;2023-04-24T01:52:54;5.60;;;1.50;;
59880;SDS011;45751;51.380;10.326;2023-04-24T01:55:21;6.45;;;1.77;;
59880;SDS011;45751;51.380;10.326;2023-04-24T01:57:48;6.82;;;1.80;;
59880;SDS011;45751;51.380;10.326;2023-04-24T02:00:16;5.28;;;1.63;;
59880;SDS011;45751;51.380;10.326;2023-04-24T02:02:44;7.38;;;2.30;;
59880;SDS011;45751;51.380;10.326;2023-04-24T02:05:14;5.63;;;1.63;;
59880;SDS011;45751;51.380;10.326;2023-04-24T02:07:41;8.32;;;2.42;;
59880;SDS011;45751;51.380;10.326;2023-04-24T02:10:08;9.70;;;2.22;;
59880;SDS011;45751;51.380;10.326;2023-04-24T02:12:35;6.80;;;2.20;;
59880;SDS011;45751;51.380;10.326;2023-04-24T02:15:02;6.57;;;1.67;;
59880;SDS011;45751;51.380;10.326;2023-04-24T02:17:29;22.08;;;8.77;;
59880;SDS011;45751;51.380;10.326;2023-04-24T02:19:57;7.97;;;2.63;;
59880;SDS011;45751;51.380;10.326;2023-04-24T02:22:24;7.05;;;2.25;;
59880;SDS011;45751;51.380;10.326;2023-04-24T02:24:50;6.43;;;1.73;;
59880;SDS011;45751;51.380;10.326;2023-04-24T02:27:17;6.57;;;1.90;;
59880;SDS011;45751;51.380;10.326;2023-04-24T02:29:45;7.93;;;2.20;;
59880;SDS011;45751;51.380;10.326;2023-04-24T02:32:12;5.53;;;1.88;;
59880;SDS011;45751;51.380;10.326;2023-04-24T02:34:42;13.00;;;2.67;;
59880;SDS011;45751;51.380;10.326;2023-04-24T02:37:11;8.50;;;2.47;;
59880;SDS011;45751;51.380;10.326;2023-04-24T02:39:38;8.50;;;2.58;;
59880;SDS011;45751;51.380;10.326;2023-04-24T02:42:05;13.80;;;3.97;;
59880;SDS011;45751;51.380;10.326;2023-04-24T02:44:34;10.10;;;3.33;;
59880;SDS011;45751;51.380;10.326;2023-04-24T02:47:01;10.93;;;3.65;;
59880;SDS011;45751;51.380;10.326;2023-04-24T02:49:29;9.52;;;3.30;;
59880;SDS011;45751;51.380;10.326;2023-04-24T02:51:56;10.13;;;3.83;;
59880;SDS011;45751;51.380;10.326;2023-04-24T02:54:23;11.75;;;4.03;;
59880;SDS011;45751;51.380;10.326;2023-04-24T02:56:50;7.13;;;2.45;;
59880;SDS011;45751;51.380;10.326;2023-04-24T02:59:16;7.80;;;2.15;;
59880;SDS011;45751;51.380;10.326;2023-04-24T03:01:43;8.73;;;2.60;;
59880;SDS011;45751;51.380;10.326;2023-04-24T03:04:10;6.20;;;2.05;;
59880;SDS011;45751;51.380;10.326;2023-04-24T03:06:38;6.72;;;2.10;;
59880;SDS011;45751;51.380;10.326;2023-04-24T03:09:05;24.00;;;7.68;;
59880;SDS011;45751;51.380;10.326;2023-04-24T03:11:31;9.35;;;3.40;;
59880;SDS011;45751;51.380;10.326;2023-04-24T03:13:59;6.85;;;2.30;;
59880;SDS011;45751;51.380;10.326;2023-04-24T03:16:26;9.50;;;2.03;;
59880;SDS011;45751;51.380;10.326;2023-04-24T03:18:54;7.53;;;2.03;;
59880;SDS011;45751;51.380;10.326;2023-04-24T03:21:23;6.15;;;2.45;;
59880;SDS011;45751;51.380;10.326;2023-04-24T03:23:50;8.05;;;2.75;;
59880;SDS011;45751;51.380;10.326;2023-04-24T03:26:17;6.93;;;2.55;;
59880;SDS011;45751;51.380;10.326;2023-04-24T03:28:59;7.30;;;2.33;;
59880;SDS011;45751;51.380;10.326;2023-04-24T03:31:26;6.78;;;2.22;;
59880;SDS011;45751;51.380;10.326;2023-04-24T03:33:53;8.68;;;2.88;;
59880;SDS011;45751;51.380;10.326;2023-04-24T03:36:20;7.80;;;2.45;;
59880;SDS011;45751;51.380;10.326;2023-04-24T03:38:47;7.20;;;2.60;;
59880;SDS011;45751;51.380;10.326;2023-04-24T03:41:27;7.45;;;2.72;;
59880;SDS011;45751;51.380;10.326;2023-04-24T03:44:03;6.22;;;2.25;;
59880;SDS011;45751;51.380;10.326;2023-04-24T03:46:30;10.57;;;2.45;;
59880;SDS011;45751;51.380;10.326;2023-04-24T03:48:59;5.97;;;2.10;;
59880;SDS011;45751;51.380;10.326;2023-04-24T03:51:31;6.88;;;2.40;;
59880;SDS011;45751;51.380;10.326;2023-04-24T03:54:14;6.53;;;2.03;;
59880;SDS011;45751;51.380;10.326;2023-04-24T03:56:41;8.27;;;2.72;;
59880;SDS011;45751;51.380;10.326;2023-04-24T03:59:08;6.78;;;1.85;;
59880;SDS011;45751;51.380;10.326;2023-04-24T04:01:36;8.18;;;2.05;;
59880;SDS011;45751;51.380;10.326;2023-04-24T04:04:12;9.60;;;3.00;;
59880;SDS011;45751;51.380;10.326;2023-04-24T04:06:40;10.82;;;2.35;;
59880;SDS011;45751;51.380;10.326;2023-04-24T04:09:07;7.57;;;2.60;;
59880;SDS011;45751;51.380;10.326;2023-04-24T04:11:35;7.78;;;2.53;;
59880;SDS011;45751;51.380;10.326;2023-04-24T04:14:02;6.15;;;2.50;;
59880;SDS011;45751;51.380;10.326;2023-04-24T04:16:30;5.82;;;1.95;;
59880;SDS011;45751;51.380;10.326;2023-04-24T04:19:01;6.32;;;2.10;;
59880;SDS011;45751;51.380;10.326;2023-04-24T04:21:29;8.25;;;2.30;;
59880;SDS011;45751;51.380;10.326;2023-04-24T04:24:08;7.43;;;2.20;;
59880;SDS011;45751;51.380;10.326;2023-04-24T04:26:40;8.80;;;2.40;;
59880;SDS011;45751;51.380;10.326;2023-04-24T04:29:09;7.90;;;2.10;;
59880;SDS011;45751;51.380;10.326;2023-04-24T04:31:40;7.28;;;2.42;;
59880;SDS011;45751;51.380;10.326;2023-04-24T04:34:10;7.13;;;2.35;;
59880;SDS011;45751;51.380;10.326;2023-04-24T04:36:40;10.85;;;2.38;;
59880;SDS011;45751;51.380;10.326;2023-04-24T04:39:20;11.75;;;2.38;;
59880;SDS011;45751;51.380;10.326;2023-04-24T04:41:54;6.35;;;1.70;;
59880;SDS011;45751;51.380;10.326;2023-04-24T04:44:25;6.63;;;2.05;;
59880;SDS011;45751;51.380;10.326;2023-04-24T04:49:29;6.32;;;1.90;;
59880;SDS011;45751;51.380;10.326;2023-04-24T04:51:57;7.28;;;2.22;;
59880;SDS011;45751;51.380;10.326;2023-04-24T04:54:25;5.68;;;2.22;;
59880;SDS011;45751;51.380;10.326;2023-04-24T04:56:53;6.18;;;1.63;;
59880;SDS011;45751;51.380;10.326;2023-04-24T04:59:20;5.53;;;1.75;;
59880;SDS011;45751;51.380;10.326;2023-04-24T05:01:52;6.47;;;1.90;;
59880;SDS011;45751;51.380;10.326;2023-04-24T05:04:19;5.68;;;1.90;;
59880;SDS011;45751;51.380;10.326;2023-04-24T05:06:47;7.10;;;2.08;;
59880;SDS011;45751;51.380;10.326;2023-04-24T05:09:14;6.00;;;1.73;;
59880;SDS011;45751;51.380;10.326;2023-04-24T05:11:52;6.60;;;1.98;;
59880;SDS011;45751;51.380;10.326;2023-04-24T05:14:21;7.63;;;2.03;;
59880;SDS011;45751;51.380;10.326;2023-04-24T05:16:48;7.85;;;1.75;;
59880;SDS011;45751;51.380;10.326;2023-04-24T05:19:18;5.95;;;2.00;;
59880;SDS011;45751;51.380;10.326;2023-04-24T05:21:45;4.70;;;1.65;;
59880;SDS011;45751;51.380;10.326;2023-04-24T05:24:12;5.70;;;1.58;;
59880;SDS011;45751;51.380;10.326;2023-04-24T05:26:59;6.57;;;1.95;;
59880;SDS011;45751;51.380;10.326;2023-04-24T05:29:32;7.47;;;1.85;;
59880;SDS011;45751;51.380;10.326;2023-04-24T05:31:59;5.32;;;1.45;;
59880;SDS011;45751;51.380;10.326;2023-04-24T05:34:28;4.97;;;1.67;;
59880;SDS011;45751;51.380;10.326;2023-04-24T05:36:56;5.68;;;1.60;;
59880;SDS011;45751;51.380;10.326;2023-04-24T05:39:24;5.75;;;1.70;;
59880;SDS011;45751;51.380;10.326;2023-04-24T05:41:52;5.45;;;1.30;;
59880;SDS011;45751;51.380;10.326;2023-04-24T05:44:19;8.35;;;2.00;;
59880;SDS011;45751;51.380;10.326;2023-04-24T05:46:47;6.10;;;1.50;;
59880;SDS011;45751;51.380;10.326;2023-04-24T05:49:14;6.38;;;1.83;;
59880;SDS011;45751;51.380;10.326;2023-04-24T05:51:42;6.13;;;1.58;;
59880;SDS011;45751;51.380;10.326;2023-04-24T05:54:09;4.63;;;1.33;;
59880;SDS011;45751;51.380;10.326;2023-04-24T05:56:38;4.95;;;1.45;;
59880;SDS011;45751;51.380;10.326;2023-04-24T05:59:10;5.93;;;1.77;;
59880;SDS011;45751;51.380;10.326;2023-04-24T06:01:37;4.80;;;1.40;;
59880;SDS011;45751;51.380;10.326;2023-04-24T06:04:17;4.35;;;1.40;;
59880;SDS011;45751;51.380;10.326;2023-04-24T06:06:45;4.60;;;1.35;;
59880;SDS011;45751;51.380;10.326;2023-04-24T06:09:12;4.43;;;1.23;;
59880;SDS011;45751;51.380;10.326;2023-04-24T06:11:39;5.20;;;1.50;;
59880;SDS011;45751;51.380;10.326;2023-04-24T06:14:11;4.72;;;1.45;;
59880;SDS011;45751;51.380;10.326;2023-04-24T06:16:39;5.72;;;1.50;;
59880;SDS011;45751;51.380;10.326;2023-04-24T06:19:18;6.60;;;1.70;;
59880;SDS011;45751;51.380;10.326;2023-04-24T06:21:46;7.70;;;1.58;;
59880;SDS011;45751;51.380;10.326;2023-04-24T06:24:14;4.78;;;1.30;;
59880;SDS011;45751;51.380;10.326;2023-04-24T06:26:42;5.25;;;1.40;;
59880;SDS011;45751;51.380;10.326;2023-04-24T06:29:09;4.35;;;1.08;;
59880;SDS011;45751;51.380;10.326;2023-04-24T06:31:36;4.82;;;1.30;;
59880;SDS011;45751;51.380;10.326;2023-04-24T06:34:03;5.22;;;1.55;;
59880;SDS011;45751;51.380;10.326;2023-04-24T06:36:31;5.90;;;1.30;;
59880;SDS011;45751;51.380;10.326;2023-04-24T06:39:00;5.18;;;1.30;;
59880;SDS011;45751;51.380;10.326;2023-04-24T06:41:28;5.25;;;1.30;;
59880;SDS011;45751;51.380;10.326;2023-04-24T06:43:55;5.95;;;1.50;;
59880;SDS011;45751;51.380;10.326;2023-04-24T06:46:22;4.60;;;1.38;;
59880;SDS011;45751;51.380;10.326;2023-04-24T06:48:52;5.97;;;1.77;;
59880;SDS011;45751;51.380;10.326;2023-04-24T06:51:22;5.72;;;1.52;;
59880;SDS011;45751;51.380;10.326;2023-04-24T06:53:54;4.20;;;1.23;;
59880;SDS011;45751;51.380;10.326;2023-04-24T06:56:22;6.20;;;1.63;;
59880;SDS011;45751;51.380;10.326;2023-04-24T06:58:49;5.78;;;1.67;;
59880;SDS011;45751;51.380;10.326;2023-04-24T07:01:16;5.32;;;1.60;;
59880;SDS011;45751;51.380;10.326;2023-04-24T07:03:43;6.25;;;1.95;;
59880;SDS011;45751;51.380;10.326;2023-04-24T07:06:10;5.70;;;1.50;;
59880;SDS011;45751;51.380;10.326;2023-04-24T07:08:39;6.03;;;1.90;;
59880;SDS011;45751;51.380;10.326;2023-04-24T07:11:08;8.85;;;1.70;;
59880;SDS011;45751;51.380;10.326;2023-04-24T07:13:35;5.78;;;1.75;;
59880;SDS011;45751;51.380;10.326;2023-04-24T07:16:02;6.45;;;2.10;;
59880;SDS011;45751;51.380;10.326;2023-04-24T07:18:29;5.65;;;1.80;;
59880;SDS011;45751;51.380;10.326;2023-04-24T07:20:57;7.15;;;1.65;;
59880;SDS011;45751;51.380;10.326;2023-04-24T07:23:23;5.60;;;1.70;;
59880;SDS011;45751;51.380;10.326;2023-04-24T07:25:50;6.65;;;2.58;;
59880;SDS011;45751;51.380;10.326;2023-04-24T07:28:17;5.65;;;1.73;;
59880;SDS011;45751;51.380;10.326;2023-04-24T07:30:44;5.47;;;1.55;;
59880;SDS011;45751;51.380;10.326;2023-04-24T07:33:11;7.25;;;1.83;;
59880;SDS011;45751;51.380;10.326;2023-04-24T07:35:39;7.50;;;2.10;;
59880;SDS011;45751;51.380;10.326;2023-04-24T07:38:06;6.93;;;2.03;;
59880;SDS011;45751;51.380;10.326;2023-04-24T07:40:33;6.80;;;2.05;;
59880;SDS011;45751;51.380;10.326;2023-04-24T07:43:00;5.65;;;1.90;;
59880;SDS011;45751;51.380;10.326;2023-04-24T07:45:27;6.45;;;1.95;;
59880;SDS011;45751;51.380;10.326;2023-04-24T07:47:54;7.90;;;2.13;;
59880;SDS011;45751;51.380;10.326;2023-04-24T07:50:21;6.53;;;2.55;;
59880;SDS011;45751;51.380;10.326;2023-04-24T07:52:48;8.80;;;2.97;;
59880;SDS011;45751;51.380;10.326;2023-04-24T07:55:15;7.57;;;2.35;;
59880;SDS011;45751;51.380;10.326;2023-04-24T07:57:42;6.60;;;2.10;;
59880;SDS011;45751;51.380;10.326;2023-04-24T08:00:09;8.35;;;2.60;;
59880;SDS011;45751;51.380;10.326;2023-04-24T08:02:37;5.47;;;1.80;;
59880;SDS011;45751;51.380;10.326;2023-04-24T08:05:05;6.30;;;2.05;;
59880;SDS011;45751;51.380;10.326;2023-04-24T08:07:32;6.45;;;2.40;;
59880;SDS011;45751;51.380;10.326;2023-04-24T08:09:59;6.43;;;2.10;;
59880;SDS011;45751;51.380;10.326;2023-04-24T08:12:27;10.75;;;3.33;;
59880;SDS011;45751;51.380;10.326;2023-04-24T08:14:55;9.43;;;2.90;;
59880;SDS011;45751;51.380;10.326;2023-04-24T08:17:22;7.10;;;2.33;;
59880;SDS011;45751;51.380;10.326;2023-04-24T08:19:48;8.95;;;2.45;;
59880;SDS011;45751;51.380;10.326;2023-04-24T08:22:17;7.60;;;2.83;;
59880;SDS011;45751;51.380;10.326;2023-04-24T08:24:44;7.60;;;2.67;;
59880;SDS011;45751;51.380;10.326;2023-04-24T08:27:11;6.75;;;2.15;;
59880;SDS011;45751;51.380;10.326;2023-04-24T08:29:38;8.32;;;2.55;;
59880;SDS011;45751;51.380;10.326;2023-04-24T08:32:05;6.68;;;2.38;;
59880;SDS011;45751;51.380;10.326;2023-04-24T08:34:33;9.18;;;2.63;;
59880;SDS011;45751;51.380;10.326;2023-04-24T08:37:00;7.13;;;2.55;;
59880;SDS011;45751;51.380;10.326;2023-04-24T08:39:26;6.80;;;2.25;;
59880;SDS011;45751;51.380;10.326;2023-04-24T08:41:54;7.75;;;2.90;;
59880;SDS011;45751;51.380;10.326;2023-04-24T08:44:22;7.95;;;2.33;;
59880;SDS011;45751;51.380;10.326;2023-04-24T08:46:48;8.98;;;3.03;;
59880;SDS011;45751;51.380;10.326;2023-04-24T08:49:17;8.43;;;3.15;;
59880;SDS011;45751;51.380;10.326;2023-04-24T08:51:45;8.65;;;3.53;;
59880;SDS011;45751;51.380;10.326;2023-04-24T08:54:13;8.25;;;2.60;;
59880;SDS011;45751;51.380;10.326;2023-04-24T08:56:41;7.00;;;2.55;;
59880;SDS011;45751;51.380;10.326;2023-04-24T08:59:11;7.95;;;2.92;;
59880;SDS011;45751;51.380;10.326;2023-04-24T09:01:38;9.07;;;2.67;;
59880;SDS011;45751;51.380;10.326;2023-04-24T09:04:07;7.47;;;2.22;;
59880;SDS011;45751;51.380;10.326;2023-04-24T09:06:39;7.65;;;2.72;;
59880;SDS011;45751;51.380;10.326;2023-04-24T09:09:07;7.32;;;2.38;;
59880;SDS011;45751;51.380;10.326;2023-04-24T09:11:36;10.80;;;3.40;;
59880;SDS011;45751;51.380;10.326;2023-04-24T09:14:03;8.15;;;2.75;;
59880;SDS011;45751;51.380;10.326;2023-04-24T09:16:30;8.35;;;2.83;;
59880;SDS011;45751;51.380;10.326;2023-04-24T09:19:02;7.25;;;2.38;;
59880;SDS011;45751;51.380;10.326;2023-04-24T09:21:33;8.40;;;2.85;;
59880;SDS011;45751;51.380;10.326;2023-04-24T09:26:30;6.95;;;2.35;;
59880;SDS011;45751;51.380;10.326;2023-04-24T09:28:58;8.27;;;3.47;;
59880;SDS011;45751;51.380;10.326;2023-04-24T09:31:26;8.70;;;3.13;;
59880;SDS011;45751;51.380;10.326;2023-04-24T09:36:33;7.90;;;2.72;;
59880;SDS011;45751;51.380;10.326;2023-04-24T09:39:10;9.15;;;3.10;;
59880;SDS011;45751;51.380;10.326;2023-04-24T09:41:49;13.57;;;2.67;;
59880;SDS011;45751;51.380;10.326;2023-04-24T09:44:18;9.40;;;3.55;;
59880;SDS011;45751;51.380;10.326;2023-04-24T09:46:52;9.65;;;3.63;;
59880;SDS011;45751;51.380;10.326;2023-04-24T09:49:24;9.40;;;3.38;;
59880;SDS011;45751;51.380;10.326;2023-04-24T09:52:07;8.77;;;3.10;;
59880;SDS011;45751;51.380;10.326;2023-04-24T09:54:35;7.15;;;2.83;;
59880;SDS011;45751;51.380;10.326;2023-04-24T09:57:06;8.53;;;2.80;;
59880;SDS011;45751;51.380;10.326;2023-04-24T09:59:35;11.77;;;3.50;;
59880;SDS011;45751;51.380;10.326;2023-04-24T10:02:19;8.05;;;3.25;;
59880;SDS011;45751;51.380;10.326;2023-04-24T10:04:56;6.95;;;2.30;;
59880;SDS011;45751;51.380;10.326;2023-04-24T10:07:25;9.48;;;3.05;;
59880;SDS011;45751;51.380;10.326;2023-04-24T10:09:52;8.80;;;3.33;;
59880;SDS011;45751;51.380;10.326;2023-04-24T10:12:20;11.13;;;3.10;;
59880;SDS011;45751;51.380;10.326;2023-04-24T10:14:48;8.45;;;2.60;;
59880;SDS011;45751;51.380;10.326;2023-04-24T10:17:16;16.58;;;3.10;;
59880;SDS011;45751;51.380;10.326;2023-04-24T10:19:43;8.68;;;2.97;;
59880;SDS011;45751;51.380;10.326;2023-04-24T10:22:13;8.18;;;2.83;;
59880;SDS011;45751;51.380;10.326;2023-04-24T10:24:43;7.57;;;2.47;;
59880;SDS011;45751;51.380;10.326;2023-04-24T10:27:11;10.50;;;2.90;;
59880;SDS011;45751;51.380;10.326;2023-04-24T10:29:41;8.20;;;3.23;;
59880;SDS011;45751;51.380;10.326;2023-04-24T10:32:10;9.00;;;3.00;;
59880;SDS011;45751;51.380;10.326;2023-04-24T10:34:37;12.98;;;2.97;;
59880;SDS011;45751;51.380;10.326;2023-04-24T10:37:04;8.70;;;2.47;;
59880;SDS011;45751;51.380;10.326;2023-04-24T10:39:31;8.15;;;3.00;;
59880;SDS011;45751;51.380;10.326;2023-04-24T10:41:59;9.32;;;3.25;;
59880;SDS011;45751;51.380;10.326;2023-04-24T10:44:27;10.30;;;2.78;;
59880;SDS011;45751;51.380;10.326;2023-04-24T10:47:03;8.32;;;2.67;;
59880;SDS011;45751;51.380;10.326;2023-04-24T10:49:31;8.95;;;3.17;;
59880;SDS011;45751;51.380;10.326;2023-04-24T10:52:02;8.15;;;2.88;;
59880;SDS011;45751;51.380;10.326;2023-04-24T10:54:36;8.27;;;2.67;;
59880;SDS011;45751;51.380;10.326;2023-04-24T10:59:51;7.88;;;2.40;;
59880;SDS011;45751;51.380;10.326;2023-04-24T11:02:37;7.45;;;2.40;;
59880;SDS011;45751;51.380;10.326;2023-04-24T11:05:05;7.70;;;2.50;;
59880;SDS011;45751;51.380;10.326;2023-04-24T11:10:45;7.85;;;2.80;;
59880;SDS011;45751;51.380;10.326;2023-04-24T11:13:14;6.93;;;2.38;;
59880;SDS011;45751;51.380;10.326;2023-04-24T11:16:11;7.15;;;2.13;;
59880;SDS011;45751;51.380;10.326;2023-04-24T11:18:56;8.15;;;2.60;;
59880;SDS011;45751;51.380;10.326;2023-04-24T11:27:17;7.03;;;2.30;;
59880;SDS011;45751;51.380;10.326;2023-04-24T11:35:21;9.48;;;2.13;;
59880;SDS011;45751;51.380;10.326;2023-04-24T11:37:54;7.15;;;2.20;;
59880;SDS011;45751;51.380;10.326;2023-04-24T11:40:41;6.38;;;1.98;;
59880;SDS011;45751;51.380;10.326;2023-04-24T11:43:08;8.02;;;2.25;;
59880;SDS011;45751;51.380;10.326;2023-04-24T11:45:36;5.07;;;1.45;;
59880;SDS011;45751;51.380;10.326;2023-04-24T11:48:03;6.50;;;2.20;;
59880;SDS011;45751;51.380;10.326;2023-04-24T11:50:30;5.20;;;1.52;;
59880;SDS011;45751;51.380;10.326;2023-04-24T11:52:57;6.38;;;1.83;;
59880;SDS011;45751;51.380;10.326;2023-04-24T11:55:27;9.40;;;1.77;;
59880;SDS011;45751;51.380;10.326;2023-04-24T11:57:58;6.90;;;2.05;;
59880;SDS011;45751;51.380;10.326;2023-04-24T12:03:12;5.45;;;1.80;;
59880;SDS011;45751;51.380;10.326;2023-04-24T12:05:39;5.38;;;1.60;;
59880;SDS011;45751;51.380;10.326;2023-04-24T12:08:07;5.50;;;1.60;;
59880;SDS011;45751;51.380;10.326;2023-04-24T12:10:34;6.25;;;1.60;;
59880;SDS011;45751;51.380;10.326;2023-04-24T12:13:01;5.82;;;1.90;;
59880;SDS011;45751;51.380;10.326;2023-04-24T12:15:29;6.95;;;1.63;;
59880;SDS011;45751;51.380;10.326;2023-04-24T12:17:56;5.72;;;1.70;;
59880;SDS011;45751;51.380;10.326;2023-04-24T12:20:24;7.82;;;1.80;;
59880;SDS011;45751;51.380;10.326;2023-04-24T12:22:54;4.18;;;1.05;;
59880;SDS011;45751;51.380;10.326;2023-04-24T12:25:26;5.05;;;1.50;;
59880;SDS011;45751;51.380;10.326;2023-04-24T12:30:33;5.53;;;1.73;;
59880;SDS011;45751;51.380;10.326;2023-04-24T12:33:02;6.18;;;1.35;;
59880;SDS011;45751;51.380;10.326;2023-04-24T12:35:30;5.80;;;1.35;;
59880;SDS011;45751;51.380;10.326;2023-04-24T12:38:10;5.28;;;1.40;;
59880;SDS011;45751;51.380;10.326;2023-04-24T12:40:41;4.75;;;1.20;;
59880;SDS011;45751;51.380;10.326;2023-04-24T12:43:12;3.85;;;1.17;;
59880;SDS011;45751;51.380;10.326;2023-04-24T12:45:41;3.30;;;0.93;;
59880;SDS011;45751;51.380;10.326;2023-04-24T12:48:08;5.20;;;1.58;;
59880;SDS011;45751;51.380;10.326;2023-04-24T12:50:35;4.20;;;1.25;;
59880;SDS011;45751;51.380;10.326;2023-04-24T12:53:02;4.03;;;1.17;;
59880;SDS011;45751;51.380;10.326;2023-04-24T12:55:29;5.18;;;1.20;;
59880;SDS011;45751;51.380;10.326;2023-04-24T12:57:56;3.38;;;1.05;;
59880;SDS011;45751;51.380;10.326;2023-04-24T13:00:24;3.80;;;0.98;;
59880;SDS011;45751;51.380;10.326;2023-04-24T13:02:51;3.58;;;1.00;;
59880;SDS011;45751;51.380;10.326;2023-04-24T13:05:18;3.63;;;1.00;;
59880;SDS011;45751;51.380;10.326;2023-04-24T13:07:45;2.67;;;0.80;;
59880;SDS011;45751;51.380;10.326;2023-04-24T13:10:12;3.58;;;0.90;;
59880;SDS011;45751;51.380;10.326;2023-04-24T13:12:39;4.20;;;1.13;;
59880;SDS011;45751;51.380;10.326;2023-04-24T13:15:06;3.53;;;1.00;;
59880;SDS011;45751;51.380;10.326;2023-04-24T13:17:33;4.60;;;0.90;;
59880;SDS011;45751;51.380;10.326;2023-04-24T13:20:00;3.10;;;0.80;;
59880;SDS011;45751;51.380;10.326;2023-04-24T13:22:27;2.53;;;0.73;;
59880;SDS011;45751;51.380;10.326;2023-04-24T13:24:54;2.58;;;0.80;;
59880;SDS011;45751;51.380;10.326;2023-04-24T13:27:22;3.58;;;0.82;;
59880;SDS011;45751;51.380;10.326;2023-04-24T13:29:49;6.93;;;1.75;;
59880;SDS011;45751;51.380;10.326;2023-04-24T13:32:16;2.55;;;0.70;;
59880;SDS011;45751;51.380;10.326;2023-04-24T13:34:43;2.42;;;0.75;;
59880;SDS011;45751;51.380;10.326;2023-04-24T13:37:12;3.25;;;0.90;;
59880;SDS011;45751;51.380;10.326;2023-04-24T13:39:39;1.85;;;0.60;;
59880;SDS011;45751;51.380;10.326;2023-04-24T13:42:08;2.63;;;0.70;;
59880;SDS011;45751;51.380;10.326;2023-04-24T13:44:35;2.88;;;0.77;;
59880;SDS011;45751;51.380;10.326;2023-04-24T13:47:02;2.13;;;0.70;;
59880;SDS011;45751;51.380;10.326;2023-04-24T13:49:29;2.42;;;0.70;;
59880;SDS011;45751;51.380;10.326;2023-04-24T13:51:56;2.75;;;0.80;;
59880;SDS011;45751;51.380;10.326;2023-04-24T13:54:23;2.95;;;0.70;;
59880;SDS011;45751;51.380;10.326;2023-04-24T13:56:52;2.13;;;0.70;;
59880;SDS011;45751;51.380;10.326;2023-04-24T13:59:19;3.85;;;0.90;;
59880;SDS011;45751;51.380;10.326;2023-04-24T14:01:47;3.13;;;0.82;;
59880;SDS011;45751;51.380;10.326;2023-04-24T14:04:15;3.28;;;0.73;;
59880;SDS011;45751;51.380;10.326;2023-04-24T14:06:43;4.25;;;1.08;;
59880;SDS011;45751;51.380;10.326;2023-04-24T14:09:10;2.47;;;0.73;;
59880;SDS011;45751;51.380;10.326;2023-04-24T14:11:37;3.83;;;1.00;;
59880;SDS011;45751;51.380;10.326;2023-04-24T14:14:04;2.85;;;0.70;;
59880;SDS011;45751;51.380;10.326;2023-04-24T14:16:32;3.92;;;0.80;;
59880;SDS011;45751;51.380;10.326;2023-04-24T14:18:59;4.05;;;1.10;;
59880;SDS011;45751;51.380;10.326;2023-04-24T14:21:25;4.60;;;1.10;;
59880;SDS011;45751;51.380;10.326;2023-04-24T14:23:52;3.40;;;1.05;;
59880;SDS011;45751;51.380;10.326;2023-04-24T14:26:19;3.95;;;1.13;;
59880;SDS011;45751;51.380;10.326;2023-04-24T14:28:46;4.47;;;1.10;;
59880;SDS011;45751;51.380;10.326;2023-04-24T14:31:13;3.35;;;0.95;;
59880;SDS011;45751;51.380;10.326;2023-04-24T14:33:40;3.97;;;0.93;;
59880;SDS011;45751;51.380;10.326;2023-04-24T14:36:07;10.13;;;4.15;;
59880;SDS011;45751;51.380;10.326;2023-04-24T14:38:34;5.25;;;1.70;;
59880;SDS011;45751;51.380;10.326;2023-04-24T14:41:01;4.78;;;1.00;;
59880;SDS011;45751;51.380;10.326;2023-04-24T14:43:38;4.47;;;1.10;;
59880;SDS011;45751;51.380;10.326;2023-04-24T14:46:05;3.05;;;0.80;;
59880;SDS011;45751;51.380;10.326;2023-04-24T14:48:32;3.67;;;0.93;;
59880;SDS011;45751;51.380;10.326;2023-04-24T14:50:59;2.92;;;0.80;;
59880;SDS011;45751;51.380;10.326;2023-04-24T14:53:25;3.20;;;0.90;;
59880;SDS011;45751;51.380;10.326;2023-04-24T14:55:53;3.60;;;1.02;;
59880;SDS011;45751;51.380;10.326;2023-04-24T14:58:20;3.17;;;0.90;;
59880;SDS011;45751;51.380;10.326;2023-04-24T15:00:47;2.95;;;0.95;;
59880;SDS011;45751;51.380;10.326;2023-04-24T15:03:18;4.20;;;1.13;;
59880;SDS011;45751;51.380;10.326;2023-04-24T15:05:45;3.15;;;0.85;;
59880;SDS011;45751;51.380;10.326;2023-04-24T15:08:13;2.92;;;0.77;;
59880;SDS011;45751;51.380;10.326;2023-04-24T15:10:40;3.78;;;1.13;;
59880;SDS011;45751;51.380;10.326;2023-04-24T15:13:07;3.88;;;0.90;;
59880;SDS011;45751;51.380;10.326;2023-04-24T15:15:34;4.13;;;1.00;;